sensor_id;sensor_type;location;lat;lon;timestamp;P1;durP1;ratioP1;P2;durP2;ratioP2
73150;SDS011;61354;50.758;6.106;2023-06-19T00:00:09;5.93;;;4.35;;
73150;SDS011;61354;50.758;6.106;2023-06-19T00:02:40;6.28;;;4.05;;
73150;SDS011;61354;50.758;6.106;2023-06-19T00:05:07;6.03;;;4.15;;
73150;SDS011;61354;50.758;6.106;2023-06-19T00:07:34;6.15;;;4.20;;
73150;SDS011;61354;50.758;6.106;2023-06-19T00:10:01;5.40;;;4.13;;
73150;SDS011;61354;50.758;6.106;2023-06-19T00:12:26;6.07;;;4.25;;
73150;SDS011;61354;50.758;6.106;2023-06-19T00:14:52;7.00;;;4.43;;
73150;SDS011;61354;50.758;6.106;2023-06-19T00:17:18;5.93;;;4.00;;
73150;SDS011;61354;50.758;6.106;2023-06-19T00:19:44;6.75;;;4.35;;
73150;SDS011;61354;50.758;6.106;2023-06-19T00:22:09;6.40;;;4.25;;
73150;SDS011;61354;50.758;6.106;2023-06-19T00:24:35;5.45;;;4.18;;
73150;SDS011;61354;50.758;6.106;2023-06-19T00:27:01;6.15;;;4.40;;
73150;SDS011;61354;50.758;6.106;2023-06-19T00:29:28;5.90;;;4.32;;
73150;SDS011;61354;50.758;6.106;2023-06-19T00:31:54;6.45;;;4.78;;
73150;SDS011;61354;50.758;6.106;2023-06-19T00:34:20;6.45;;;4.32;;
73150;SDS011;61354;50.758;6.106;2023-06-19T00:36:46;6.63;;;4.68;;
73150;SDS011;61354;50.758;6.106;2023-06-19T00:39:11;7.10;;;4.78;;
73150;SDS011;61354;50.758;6.106;2023-06-19T00:41:37;7.90;;;5.00;;
73150;SDS011;61354;50.758;6.106;2023-06-19T00:44:04;5.85;;;4.47;;
73150;SDS011;61354;50.758;6.106;2023-06-19T00:46:30;5.85;;;4.72;;
73150;SDS011;61354;50.758;6.106;2023-06-19T00:48:56;6.05;;;4.13;;
73150;SDS011;61354;50.758;6.106;2023-06-19T00:51:22;8.52;;;4.80;;
73150;SDS011;61354;50.758;6.106;2023-06-19T00:53:48;6.60;;;4.05;;
73150;SDS011;61354;50.758;6.106;2023-06-19T00:56:14;6.47;;;4.70;;
73150;SDS011;61354;50.758;6.106;2023-06-19T00:58:43;6.05;;;4.75;;
73150;SDS011;61354;50.758;6.106;2023-06-19T01:01:09;7.28;;;4.43;;
73150;SDS011;61354;50.758;6.106;2023-06-19T01:03:35;6.10;;;4.40;;
73150;SDS011;61354;50.758;6.106;2023-06-19T01:06:02;5.97;;;4.22;;
73150;SDS011;61354;50.758;6.106;2023-06-19T01:11:17;5.88;;;4.35;;
73150;SDS011;61354;50.758;6.106;2023-06-19T01:13:50;6.50;;;4.78;;
73150;SDS011;61354;50.758;6.106;2023-06-19T01:16:37;6.43;;;4.15;;
73150;SDS011;61354;50.758;6.106;2023-06-19T01:19:04;5.90;;;4.10;;
73150;SDS011;61354;50.758;6.106;2023-06-19T01:21:34;6.43;;;3.95;;
73150;SDS011;61354;50.758;6.106;2023-06-19T01:24:01;5.97;;;4.40;;
73150;SDS011;61354;50.758;6.106;2023-06-19T01:26:26;7.15;;;4.88;;
73150;SDS011;61354;50.758;6.106;2023-06-19T01:28:52;7.13;;;4.72;;
73150;SDS011;61354;50.758;6.106;2023-06-19T01:36:37;6.25;;;3.67;;
73150;SDS011;61354;50.758;6.106;2023-06-19T01:39:03;6.05;;;4.20;;
73150;SDS011;61354;50.758;6.106;2023-06-19T01:41:30;6.50;;;4.38;;
73150;SDS011;61354;50.758;6.106;2023-06-19T01:43:57;6.15;;;3.78;;
73150;SDS011;61354;50.758;6.106;2023-06-19T01:46:23;6.78;;;4.15;;
73150;SDS011;61354;50.758;6.106;2023-06-19T01:48:49;6.00;;;4.03;;
73150;SDS011;61354;50.758;6.106;2023-06-19T01:51:14;5.93;;;3.80;;
73150;SDS011;61354;50.758;6.106;2023-06-19T01:53:41;6.13;;;3.58;;
73150;SDS011;61354;50.758;6.106;2023-06-19T01:56:06;5.75;;;3.50;;
73150;SDS011;61354;50.758;6.106;2023-06-19T01:58:32;5.30;;;3.40;;
73150;SDS011;61354;50.758;6.106;2023-06-19T02:00:58;4.63;;;3.22;;
73150;SDS011;61354;50.758;6.106;2023-06-19T02:03:23;5.85;;;3.78;;
73150;SDS011;61354;50.758;6.106;2023-06-19T02:05:49;5.28;;;3.70;;
73150;SDS011;61354;50.758;6.106;2023-06-19T02:08:14;5.80;;;3.65;;
73150;SDS011;61354;50.758;6.106;2023-06-19T02:10:40;5.65;;;3.60;;
73150;SDS011;61354;50.758;6.106;2023-06-19T02:13:05;4.80;;;3.30;;
73150;SDS011;61354;50.758;6.106;2023-06-19T02:15:31;5.18;;;3.63;;
73150;SDS011;61354;50.758;6.106;2023-06-19T02:17:57;5.15;;;3.30;;
73150;SDS011;61354;50.758;6.106;2023-06-19T02:20:22;4.88;;;3.25;;
73150;SDS011;61354;50.758;6.106;2023-06-19T02:22:49;4.55;;;3.30;;
73150;SDS011;61354;50.758;6.106;2023-06-19T02:25:16;5.43;;;3.75;;
73150;SDS011;61354;50.758;6.106;2023-06-19T02:27:42;4.65;;;3.22;;
73150;SDS011;61354;50.758;6.106;2023-06-19T02:30:08;7.43;;;3.10;;
73150;SDS011;61354;50.758;6.106;2023-06-19T02:32:34;5.15;;;3.35;;
73150;SDS011;61354;50.758;6.106;2023-06-19T02:34:59;5.95;;;2.80;;
73150;SDS011;61354;50.758;6.106;2023-06-19T02:37:25;4.85;;;2.80;;
73150;SDS011;61354;50.758;6.106;2023-06-19T02:39:50;5.60;;;2.90;;
73150;SDS011;61354;50.758;6.106;2023-06-19T02:42:16;4.75;;;2.70;;
73150;SDS011;61354;50.758;6.106;2023-06-19T02:44:41;5.60;;;2.90;;
73150;SDS011;61354;50.758;6.106;2023-06-19T02:47:08;5.32;;;2.83;;
73150;SDS011;61354;50.758;6.106;2023-06-19T02:49:34;4.55;;;2.92;;
73150;SDS011;61354;50.758;6.106;2023-06-19T02:52:00;7.25;;;3.03;;
73150;SDS011;61354;50.758;6.106;2023-06-19T02:54:25;5.72;;;2.58;;
73150;SDS011;61354;50.758;6.106;2023-06-19T02:56:51;5.53;;;2.92;;
73150;SDS011;61354;50.758;6.106;2023-06-19T02:59:16;5.93;;;2.90;;
73150;SDS011;61354;50.758;6.106;2023-06-19T03:01:42;4.70;;;2.80;;
73150;SDS011;61354;50.758;6.106;2023-06-19T03:04:08;4.88;;;2.90;;
73150;SDS011;61354;50.758;6.106;2023-06-19T03:06:33;6.00;;;2.72;;
73150;SDS011;61354;50.758;6.106;2023-06-19T03:09:07;4.75;;;2.63;;
73150;SDS011;61354;50.758;6.106;2023-06-19T03:11:40;4.32;;;2.72;;
73150;SDS011;61354;50.758;6.106;2023-06-19T03:14:06;4.72;;;2.83;;
73150;SDS011;61354;50.758;6.106;2023-06-19T03:16:32;4.60;;;2.63;;
73150;SDS011;61354;50.758;6.106;2023-06-19T03:18:59;4.43;;;2.80;;
73150;SDS011;61354;50.758;6.106;2023-06-19T03:21:25;4.50;;;2.80;;
73150;SDS011;61354;50.758;6.106;2023-06-19T03:23:51;4.55;;;2.70;;
73150;SDS011;61354;50.758;6.106;2023-06-19T03:26:18;5.35;;;2.78;;
73150;SDS011;61354;50.758;6.106;2023-06-19T03:28:45;3.97;;;2.58;;
73150;SDS011;61354;50.758;6.106;2023-06-19T03:31:12;4.57;;;2.50;;
73150;SDS011;61354;50.758;6.106;2023-06-19T03:33:37;6.20;;;2.53;;
73150;SDS011;61354;50.758;6.106;2023-06-19T03:36:03;4.47;;;2.58;;
73150;SDS011;61354;50.758;6.106;2023-06-19T03:38:29;4.82;;;2.92;;
73150;SDS011;61354;50.758;6.106;2023-06-19T03:40:54;4.97;;;2.65;;
73150;SDS011;61354;50.758;6.106;2023-06-19T03:43:20;5.38;;;3.00;;
73150;SDS011;61354;50.758;6.106;2023-06-19T03:45:45;4.78;;;2.90;;
73150;SDS011;61354;50.758;6.106;2023-06-19T03:48:11;5.47;;;3.10;;
73150;SDS011;61354;50.758;6.106;2023-06-19T03:50:37;4.78;;;2.80;;
73150;SDS011;61354;50.758;6.106;2023-06-19T03:53:02;4.45;;;2.60;;
73150;SDS011;61354;50.758;6.106;2023-06-19T03:55:28;5.13;;;2.83;;
73150;SDS011;61354;50.758;6.106;2023-06-19T03:57:54;5.50;;;2.83;;
73150;SDS011;61354;50.758;6.106;2023-06-19T04:00:19;5.25;;;3.08;;
73150;SDS011;61354;50.758;6.106;2023-06-19T04:02:45;4.55;;;2.88;;
73150;SDS011;61354;50.758;6.106;2023-06-19T04:05:14;5.57;;;3.38;;
73150;SDS011;61354;50.758;6.106;2023-06-19T04:07:43;5.00;;;2.83;;
73150;SDS011;61354;50.758;6.106;2023-06-19T04:10:09;4.68;;;3.08;;
73150;SDS011;61354;50.758;6.106;2023-06-19T04:12:36;4.45;;;3.10;;
73150;SDS011;61354;50.758;6.106;2023-06-19T04:15:02;5.78;;;3.38;;
73150;SDS011;61354;50.758;6.106;2023-06-19T04:17:28;4.47;;;2.70;;
73150;SDS011;61354;50.758;6.106;2023-06-19T04:19:54;5.05;;;2.97;;
73150;SDS011;61354;50.758;6.106;2023-06-19T04:22:19;6.38;;;2.97;;
73150;SDS011;61354;50.758;6.106;2023-06-19T04:24:45;6.47;;;3.03;;
73150;SDS011;61354;50.758;6.106;2023-06-19T04:27:11;4.40;;;2.60;;
73150;SDS011;61354;50.758;6.106;2023-06-19T04:29:36;4.25;;;2.80;;
73150;SDS011;61354;50.758;6.106;2023-06-19T04:32:02;4.25;;;2.45;;
73150;SDS011;61354;50.758;6.106;2023-06-19T04:34:36;4.13;;;2.25;;
73150;SDS011;61354;50.758;6.106;2023-06-19T04:37:02;4.78;;;2.55;;
73150;SDS011;61354;50.758;6.106;2023-06-19T04:39:28;5.85;;;2.67;;
73150;SDS011;61354;50.758;6.106;2023-06-19T04:41:53;4.65;;;2.25;;
73150;SDS011;61354;50.758;6.106;2023-06-19T04:44:19;4.20;;;2.53;;
73150;SDS011;61354;50.758;6.106;2023-06-19T04:46:44;4.32;;;2.40;;
73150;SDS011;61354;50.758;6.106;2023-06-19T04:49:10;3.90;;;2.33;;
73150;SDS011;61354;50.758;6.106;2023-06-19T04:51:36;3.72;;;2.00;;
73150;SDS011;61354;50.758;6.106;2023-06-19T04:54:01;3.60;;;2.00;;
73150;SDS011;61354;50.758;6.106;2023-06-19T04:56:28;5.20;;;2.30;;
73150;SDS011;61354;50.758;6.106;2023-06-19T04:58:54;3.55;;;2.13;;
73150;SDS011;61354;50.758;6.106;2023-06-19T05:01:24;3.70;;;2.20;;
73150;SDS011;61354;50.758;6.106;2023-06-19T05:03:54;4.15;;;2.10;;
73150;SDS011;61354;50.758;6.106;2023-06-19T05:06:21;3.97;;;2.05;;
73150;SDS011;61354;50.758;6.106;2023-06-19T05:08:50;4.03;;;2.33;;
73150;SDS011;61354;50.758;6.106;2023-06-19T05:11:15;3.42;;;1.75;;
73150;SDS011;61354;50.758;6.106;2023-06-19T05:13:41;3.33;;;1.88;;
73150;SDS011;61354;50.758;6.106;2023-06-19T05:16:07;3.25;;;1.92;;
73150;SDS011;61354;50.758;6.106;2023-06-19T05:18:33;4.40;;;1.80;;
73150;SDS011;61354;50.758;6.106;2023-06-19T05:20:58;3.65;;;1.95;;
73150;SDS011;61354;50.758;6.106;2023-06-19T05:23:24;2.97;;;1.73;;
73150;SDS011;61354;50.758;6.106;2023-06-19T05:25:49;4.05;;;1.80;;
73150;SDS011;61354;50.758;6.106;2023-06-19T05:28:15;3.42;;;1.85;;
73150;SDS011;61354;50.758;6.106;2023-06-19T05:30:40;3.65;;;2.25;;
73150;SDS011;61354;50.758;6.106;2023-06-19T05:33:06;2.65;;;1.77;;
73150;SDS011;61354;50.758;6.106;2023-06-19T05:35:32;3.13;;;1.73;;
73150;SDS011;61354;50.758;6.106;2023-06-19T05:37:57;3.15;;;1.83;;
73150;SDS011;61354;50.758;6.106;2023-06-19T05:40:23;5.05;;;2.20;;
73150;SDS011;61354;50.758;6.106;2023-06-19T05:42:49;3.30;;;1.70;;
73150;SDS011;61354;50.758;6.106;2023-06-19T05:45:14;3.83;;;1.77;;
73150;SDS011;61354;50.758;6.106;2023-06-19T05:47:40;2.95;;;1.67;;
73150;SDS011;61354;50.758;6.106;2023-06-19T05:50:05;3.00;;;1.80;;
73150;SDS011;61354;50.758;6.106;2023-06-19T05:52:31;3.13;;;1.50;;
73150;SDS011;61354;50.758;6.106;2023-06-19T05:54:57;2.65;;;1.70;;
73150;SDS011;61354;50.758;6.106;2023-06-19T05:57:23;3.05;;;1.70;;
73150;SDS011;61354;50.758;6.106;2023-06-19T05:59:49;3.97;;;1.98;;
73150;SDS011;61354;50.758;6.106;2023-06-19T06:02:16;3.17;;;1.60;;
73150;SDS011;61354;50.758;6.106;2023-06-19T06:04:43;3.78;;;1.70;;
73150;SDS011;61354;50.758;6.106;2023-06-19T06:07:08;3.33;;;1.73;;
73150;SDS011;61354;50.758;6.106;2023-06-19T06:09:34;3.17;;;1.67;;
73150;SDS011;61354;50.758;6.106;2023-06-19T06:11:59;3.83;;;1.70;;
73150;SDS011;61354;50.758;6.106;2023-06-19T06:14:25;3.10;;;1.65;;
73150;SDS011;61354;50.758;6.106;2023-06-19T06:16:51;3.22;;;1.80;;
73150;SDS011;61354;50.758;6.106;2023-06-19T06:19:19;3.38;;;2.28;;
73150;SDS011;61354;50.758;6.106;2023-06-19T06:21:45;3.38;;;1.85;;
73150;SDS011;61354;50.758;6.106;2023-06-19T06:24:11;3.47;;;1.90;;
73150;SDS011;61354;50.758;6.106;2023-06-19T06:26:37;4.20;;;2.00;;
73150;SDS011;61354;50.758;6.106;2023-06-19T06:32:06;4.15;;;1.92;;
73150;SDS011;61354;50.758;6.106;2023-06-19T06:34:33;3.70;;;1.77;;
73150;SDS011;61354;50.758;6.106;2023-06-19T06:36:59;3.50;;;1.73;;
73150;SDS011;61354;50.758;6.106;2023-06-19T06:39:25;3.45;;;2.00;;
73150;SDS011;61354;50.758;6.106;2023-06-19T06:41:51;7.13;;;2.42;;
73150;SDS011;61354;50.758;6.106;2023-06-19T06:44:17;3.25;;;2.03;;
73150;SDS011;61354;50.758;6.106;2023-06-19T06:46:42;4.00;;;2.28;;
73150;SDS011;61354;50.758;6.106;2023-06-19T06:49:08;4.68;;;2.30;;
73150;SDS011;61354;50.758;6.106;2023-06-19T06:51:34;4.35;;;2.30;;
73150;SDS011;61354;50.758;6.106;2023-06-19T06:53:59;3.85;;;2.13;;
73150;SDS011;61354;50.758;6.106;2023-06-19T06:56:25;4.30;;;2.00;;
73150;SDS011;61354;50.758;6.106;2023-06-19T06:58:51;5.47;;;2.10;;
73150;SDS011;61354;50.758;6.106;2023-06-19T07:01:17;4.07;;;1.90;;
73150;SDS011;61354;50.758;6.106;2023-06-19T07:03:42;5.00;;;2.10;;
73150;SDS011;61354;50.758;6.106;2023-06-19T07:06:08;4.00;;;2.22;;
73150;SDS011;61354;50.758;6.106;2023-06-19T07:08:35;4.03;;;2.30;;
73150;SDS011;61354;50.758;6.106;2023-06-19T07:11:00;5.28;;;2.38;;
73150;SDS011;61354;50.758;6.106;2023-06-19T07:13:26;5.75;;;2.47;;
73150;SDS011;61354;50.758;6.106;2023-06-19T07:15:52;5.07;;;2.65;;
73150;SDS011;61354;50.758;6.106;2023-06-19T07:18:17;4.82;;;2.40;;
73150;SDS011;61354;50.758;6.106;2023-06-19T07:20:43;4.70;;;2.67;;
73150;SDS011;61354;50.758;6.106;2023-06-19T07:23:09;4.85;;;2.28;;
73150;SDS011;61354;50.758;6.106;2023-06-19T07:25:35;5.00;;;2.30;;
73150;SDS011;61354;50.758;6.106;2023-06-19T07:28:01;4.63;;;2.50;;
73150;SDS011;61354;50.758;6.106;2023-06-19T07:30:29;5.72;;;2.17;;
73150;SDS011;61354;50.758;6.106;2023-06-19T07:32:55;4.53;;;2.30;;
73150;SDS011;61354;50.758;6.106;2023-06-19T07:35:21;3.95;;;2.30;;
73150;SDS011;61354;50.758;6.106;2023-06-19T07:37:47;5.00;;;2.80;;
73150;SDS011;61354;50.758;6.106;2023-06-19T07:40:12;4.45;;;2.60;;
73150;SDS011;61354;50.758;6.106;2023-06-19T07:42:38;4.78;;;2.42;;
73150;SDS011;61354;50.758;6.106;2023-06-19T07:45:04;5.97;;;2.70;;
73150;SDS011;61354;50.758;6.106;2023-06-19T07:47:30;3.80;;;2.30;;
73150;SDS011;61354;50.758;6.106;2023-06-19T07:49:56;4.28;;;2.47;;
73150;SDS011;61354;50.758;6.106;2023-06-19T07:52:21;5.38;;;2.83;;
73150;SDS011;61354;50.758;6.106;2023-06-19T07:54:51;5.15;;;2.53;;
73150;SDS011;61354;50.758;6.106;2023-06-19T07:57:21;4.10;;;2.50;;
73150;SDS011;61354;50.758;6.106;2023-06-19T07:59:49;4.53;;;2.70;;
73150;SDS011;61354;50.758;6.106;2023-06-19T08:02:16;5.72;;;2.75;;
73150;SDS011;61354;50.758;6.106;2023-06-19T08:04:42;6.25;;;3.00;;
73150;SDS011;61354;50.758;6.106;2023-06-19T08:07:08;5.35;;;2.80;;
73150;SDS011;61354;50.758;6.106;2023-06-19T08:09:34;4.32;;;2.72;;
73150;SDS011;61354;50.758;6.106;2023-06-19T08:12:00;4.78;;;2.65;;
73150;SDS011;61354;50.758;6.106;2023-06-19T08:14:26;4.43;;;2.78;;
73150;SDS011;61354;50.758;6.106;2023-06-19T08:16:51;4.20;;;2.63;;
73150;SDS011;61354;50.758;6.106;2023-06-19T08:19:17;6.15;;;3.47;;
73150;SDS011;61354;50.758;6.106;2023-06-19T08:21:43;4.72;;;2.67;;
73150;SDS011;61354;50.758;6.106;2023-06-19T08:24:08;4.68;;;2.80;;
73150;SDS011;61354;50.758;6.106;2023-06-19T08:26:34;5.22;;;2.90;;
73150;SDS011;61354;50.758;6.106;2023-06-19T08:28:59;4.43;;;2.70;;
73150;SDS011;61354;50.758;6.106;2023-06-19T08:31:25;4.97;;;2.90;;
73150;SDS011;61354;50.758;6.106;2023-06-19T08:33:55;6.93;;;3.92;;
73150;SDS011;61354;50.758;6.106;2023-06-19T08:36:21;6.35;;;2.83;;
73150;SDS011;61354;50.758;6.106;2023-06-19T08:38:47;6.20;;;3.30;;
73150;SDS011;61354;50.758;6.106;2023-06-19T08:41:15;4.43;;;3.00;;
73150;SDS011;61354;50.758;6.106;2023-06-19T08:43:59;4.75;;;2.92;;
73150;SDS011;61354;50.758;6.106;2023-06-19T08:46:25;4.65;;;2.72;;
73150;SDS011;61354;50.758;6.106;2023-06-19T08:48:50;4.95;;;2.83;;
73150;SDS011;61354;50.758;6.106;2023-06-19T08:51:16;5.53;;;2.90;;
73150;SDS011;61354;50.758;6.106;2023-06-19T08:53:45;5.57;;;3.15;;
73150;SDS011;61354;50.758;6.106;2023-06-19T08:56:20;6.13;;;3.25;;
73150;SDS011;61354;50.758;6.106;2023-06-19T08:58:48;4.78;;;2.90;;
73150;SDS011;61354;50.758;6.106;2023-06-19T09:01:34;5.68;;;3.03;;
73150;SDS011;61354;50.758;6.106;2023-06-19T09:03:59;5.13;;;3.20;;
73150;SDS011;61354;50.758;6.106;2023-06-19T09:06:25;5.32;;;3.08;;
73150;SDS011;61354;50.758;6.106;2023-06-19T09:08:57;4.88;;;3.08;;
73150;SDS011;61354;50.758;6.106;2023-06-19T09:11:27;4.93;;;2.78;;
73150;SDS011;61354;50.758;6.106;2023-06-19T09:13:56;5.35;;;2.95;;
73150;SDS011;61354;50.758;6.106;2023-06-19T09:16:23;6.53;;;3.10;;
73150;SDS011;61354;50.758;6.106;2023-06-19T09:18:49;5.47;;;3.10;;
73150;SDS011;61354;50.758;6.106;2023-06-19T09:21:19;5.03;;;2.97;;
73150;SDS011;61354;50.758;6.106;2023-06-19T09:23:47;4.90;;;2.88;;
73150;SDS011;61354;50.758;6.106;2023-06-19T09:32:19;5.80;;;3.33;;
73150;SDS011;61354;50.758;6.106;2023-06-19T09:34:54;5.47;;;3.00;;
73150;SDS011;61354;50.758;6.106;2023-06-19T09:37:24;4.85;;;2.70;;
73150;SDS011;61354;50.758;6.106;2023-06-19T09:39:53;4.93;;;3.03;;
73150;SDS011;61354;50.758;6.106;2023-06-19T09:42:24;5.25;;;3.05;;
73150;SDS011;61354;50.758;6.106;2023-06-19T09:44:58;5.85;;;3.00;;
73150;SDS011;61354;50.758;6.106;2023-06-19T09:47:28;5.72;;;3.17;;
73150;SDS011;61354;50.758;6.106;2023-06-19T09:49:56;4.68;;;3.00;;
73150;SDS011;61354;50.758;6.106;2023-06-19T09:52:22;6.50;;;3.25;;
73150;SDS011;61354;50.758;6.106;2023-06-19T09:54:55;4.72;;;2.85;;
73150;SDS011;61354;50.758;6.106;2023-06-19T09:57:23;4.72;;;3.08;;
73150;SDS011;61354;50.758;6.106;2023-06-19T09:59:53;4.57;;;3.00;;
73150;SDS011;61354;50.758;6.106;2023-06-19T10:02:21;6.43;;;2.78;;
73150;SDS011;61354;50.758;6.106;2023-06-19T10:04:51;4.72;;;2.92;;
73150;SDS011;61354;50.758;6.106;2023-06-19T10:07:19;6.20;;;2.90;;
73150;SDS011;61354;50.758;6.106;2023-06-19T10:09:59;5.20;;;3.30;;
73150;SDS011;61354;50.758;6.106;2023-06-19T10:12:44;5.85;;;3.00;;
73150;SDS011;61354;50.758;6.106;2023-06-19T10:15:18;4.82;;;2.70;;
73150;SDS011;61354;50.758;6.106;2023-06-19T10:17:50;7.05;;;2.92;;
73150;SDS011;61354;50.758;6.106;2023-06-19T10:20:21;4.38;;;2.92;;
73150;SDS011;61354;50.758;6.106;2023-06-19T10:25:45;4.78;;;2.85;;
73150;SDS011;61354;50.758;6.106;2023-06-19T10:28:22;6.43;;;2.90;;
73150;SDS011;61354;50.758;6.106;2023-06-19T10:33:18;4.78;;;3.00;;
73150;SDS011;61354;50.758;6.106;2023-06-19T10:35:43;4.78;;;2.80;;
73150;SDS011;61354;50.758;6.106;2023-06-19T10:38:09;6.18;;;3.78;;
73150;SDS011;61354;50.758;6.106;2023-06-19T10:40:36;5.15;;;3.08;;
73150;SDS011;61354;50.758;6.106;2023-06-19T10:43:02;5.25;;;3.20;;
73150;SDS011;61354;50.758;6.106;2023-06-19T10:45:29;5.95;;;2.90;;
73150;SDS011;61354;50.758;6.106;2023-06-19T10:47:55;5.32;;;3.20;;
73150;SDS011;61354;50.758;6.106;2023-06-19T10:50:21;7.47;;;3.03;;
73150;SDS011;61354;50.758;6.106;2023-06-19T10:52:48;4.90;;;3.20;;
73150;SDS011;61354;50.758;6.106;2023-06-19T10:55:17;6.30;;;3.22;;
73150;SDS011;61354;50.758;6.106;2023-06-19T10:57:46;4.82;;;2.80;;
73150;SDS011;61354;50.758;6.106;2023-06-19T11:00:30;5.65;;;3.38;;
73150;SDS011;61354;50.758;6.106;2023-06-19T11:02:58;5.90;;;3.10;;
73150;SDS011;61354;50.758;6.106;2023-06-19T11:05:24;5.70;;;2.90;;
73150;SDS011;61354;50.758;6.106;2023-06-19T11:07:58;6.10;;;3.20;;
73150;SDS011;61354;50.758;6.106;2023-06-19T11:10:25;5.65;;;2.95;;
73150;SDS011;61354;50.758;6.106;2023-06-19T11:12:55;4.50;;;2.65;;
73150;SDS011;61354;50.758;6.106;2023-06-19T11:15:32;5.32;;;3.00;;
73150;SDS011;61354;50.758;6.106;2023-06-19T11:17:59;5.50;;;3.15;;
73150;SDS011;61354;50.758;6.106;2023-06-19T11:20:26;5.07;;;2.65;;
73150;SDS011;61354;50.758;6.106;2023-06-19T11:22:56;5.80;;;3.00;;
73150;SDS011;61354;50.758;6.106;2023-06-19T11:25:34;5.00;;;3.00;;
73150;SDS011;61354;50.758;6.106;2023-06-19T11:28:12;5.28;;;3.00;;
73150;SDS011;61354;50.758;6.106;2023-06-19T11:30:39;6.60;;;3.20;;
73150;SDS011;61354;50.758;6.106;2023-06-19T11:36:03;4.35;;;2.65;;
73150;SDS011;61354;50.758;6.106;2023-06-19T11:38:29;5.00;;;3.13;;
73150;SDS011;61354;50.758;6.106;2023-06-19T11:40:55;4.82;;;2.80;;
73150;SDS011;61354;50.758;6.106;2023-06-19T11:43:25;5.68;;;2.80;;
73150;SDS011;61354;50.758;6.106;2023-06-19T11:45:51;4.10;;;2.58;;
73150;SDS011;61354;50.758;6.106;2023-06-19T11:48:24;7.22;;;2.70;;
73150;SDS011;61354;50.758;6.106;2023-06-19T11:50:50;5.93;;;2.97;;
73150;SDS011;61354;50.758;6.106;2023-06-19T11:53:17;4.68;;;2.70;;
73150;SDS011;61354;50.758;6.106;2023-06-19T11:55:43;4.93;;;2.90;;
73150;SDS011;61354;50.758;6.106;2023-06-19T11:58:09;4.70;;;2.40;;
73150;SDS011;61354;50.758;6.106;2023-06-19T12:00:38;4.70;;;2.30;;
73150;SDS011;61354;50.758;6.106;2023-06-19T12:03:04;7.13;;;2.90;;
73150;SDS011;61354;50.758;6.106;2023-06-19T12:05:29;4.47;;;2.30;;
73150;SDS011;61354;50.758;6.106;2023-06-19T12:07:55;5.30;;;2.67;;
73150;SDS011;61354;50.758;6.106;2023-06-19T12:10:21;4.47;;;2.53;;
73150;SDS011;61354;50.758;6.106;2023-06-19T12:12:47;5.80;;;2.90;;
73150;SDS011;61354;50.758;6.106;2023-06-19T12:15:12;4.93;;;2.63;;
73150;SDS011;61354;50.758;6.106;2023-06-19T12:17:38;4.50;;;2.72;;
73150;SDS011;61354;50.758;6.106;2023-06-19T12:20:04;6.95;;;2.45;;
73150;SDS011;61354;50.758;6.106;2023-06-19T12:22:32;5.85;;;2.70;;
73150;SDS011;61354;50.758;6.106;2023-06-19T12:24:58;4.05;;;2.30;;
73150;SDS011;61354;50.758;6.106;2023-06-19T12:27:24;5.32;;;2.83;;
73150;SDS011;61354;50.758;6.106;2023-06-19T12:29:50;5.20;;;2.35;;
73150;SDS011;61354;50.758;6.106;2023-06-19T12:32:15;5.32;;;2.88;;
73150;SDS011;61354;50.758;6.106;2023-06-19T12:34:41;5.05;;;2.72;;
73150;SDS011;61354;50.758;6.106;2023-06-19T12:37:14;5.28;;;2.97;;
73150;SDS011;61354;50.758;6.106;2023-06-19T12:39:43;5.20;;;2.75;;
73150;SDS011;61354;50.758;6.106;2023-06-19T12:42:09;4.57;;;2.60;;
73150;SDS011;61354;50.758;6.106;2023-06-19T12:44:37;4.95;;;2.50;;
73150;SDS011;61354;50.758;6.106;2023-06-19T12:47:04;4.75;;;2.60;;
73150;SDS011;61354;50.758;6.106;2023-06-19T12:49:30;4.90;;;2.78;;
73150;SDS011;61354;50.758;6.106;2023-06-19T12:51:56;4.25;;;2.58;;
73150;SDS011;61354;50.758;6.106;2023-06-19T12:54:22;5.10;;;2.55;;
73150;SDS011;61354;50.758;6.106;2023-06-19T12:56:48;3.88;;;2.55;;
73150;SDS011;61354;50.758;6.106;2023-06-19T12:59:14;5.78;;;2.50;;
73150;SDS011;61354;50.758;6.106;2023-06-19T13:01:40;3.30;;;2.38;;
73150;SDS011;61354;50.758;6.106;2023-06-19T13:04:06;5.43;;;2.60;;
73150;SDS011;61354;50.758;6.106;2023-06-19T13:06:32;4.97;;;2.72;;
73150;SDS011;61354;50.758;6.106;2023-06-19T13:08:58;4.70;;;2.53;;
73150;SDS011;61354;50.758;6.106;2023-06-19T13:14:11;5.32;;;2.58;;
73150;SDS011;61354;50.758;6.106;2023-06-19T13:16:36;4.85;;;3.28;;
73150;SDS011;61354;50.758;6.106;2023-06-19T13:19:02;5.25;;;2.42;;
73150;SDS011;61354;50.758;6.106;2023-06-19T13:21:27;4.88;;;2.58;;
73150;SDS011;61354;50.758;6.106;2023-06-19T13:23:53;4.30;;;2.65;;
73150;SDS011;61354;50.758;6.106;2023-06-19T13:26:19;4.00;;;2.55;;
73150;SDS011;61354;50.758;6.106;2023-06-19T13:28:44;4.65;;;2.70;;
73150;SDS011;61354;50.758;6.106;2023-06-19T13:31:10;3.95;;;2.40;;
73150;SDS011;61354;50.758;6.106;2023-06-19T13:48:09;5.20;;;3.00;;
73150;SDS011;61354;50.758;6.106;2023-06-19T13:50:43;5.13;;;2.80;;
73150;SDS011;61354;50.758;6.106;2023-06-19T13:53:09;6.93;;;2.70;;
73150;SDS011;61354;50.758;6.106;2023-06-19T13:55:43;4.93;;;2.47;;
73150;SDS011;61354;50.758;6.106;2023-06-19T13:58:09;5.13;;;2.47;;
73150;SDS011;61354;50.758;6.106;2023-06-19T14:00:44;5.47;;;2.53;;
73150;SDS011;61354;50.758;6.106;2023-06-19T14:03:09;5.13;;;2.70;;
73150;SDS011;61354;50.758;6.106;2023-06-19T14:09:12;5.40;;;2.65;;
73150;SDS011;61354;50.758;6.106;2023-06-19T14:11:38;5.18;;;2.67;;
73150;SDS011;61354;50.758;6.106;2023-06-19T14:14:03;3.75;;;2.42;;
73150;SDS011;61354;50.758;6.106;2023-06-19T14:16:29;3.95;;;2.55;;
73150;SDS011;61354;50.758;6.106;2023-06-19T14:18:54;4.38;;;2.60;;
73150;SDS011;61354;50.758;6.106;2023-06-19T14:21:20;4.85;;;2.50;;
73150;SDS011;61354;50.758;6.106;2023-06-19T14:23:46;4.55;;;3.15;;
73150;SDS011;61354;50.758;6.106;2023-06-19T14:26:12;5.32;;;3.15;;
73150;SDS011;61354;50.758;6.106;2023-06-19T14:28:38;5.72;;;3.00;;
73150;SDS011;61354;50.758;6.106;2023-06-19T14:31:04;4.60;;;2.63;;
73150;SDS011;61354;50.758;6.106;2023-06-19T14:33:30;5.35;;;2.80;;
73150;SDS011;61354;50.758;6.106;2023-06-19T14:38:24;5.32;;;2.70;;
73150;SDS011;61354;50.758;6.106;2023-06-19T14:40:53;4.50;;;2.80;;
73150;SDS011;61354;50.758;6.106;2023-06-19T14:43:19;6.38;;;2.55;;
73150;SDS011;61354;50.758;6.106;2023-06-19T14:45:44;5.95;;;2.90;;
73150;SDS011;61354;50.758;6.106;2023-06-19T14:48:10;4.20;;;2.70;;
73150;SDS011;61354;50.758;6.106;2023-06-19T14:50:35;4.30;;;2.83;;
73150;SDS011;61354;50.758;6.106;2023-06-19T14:53:01;3.92;;;2.50;;
73150;SDS011;61354;50.758;6.106;2023-06-19T14:55:26;5.43;;;3.00;;
73150;SDS011;61354;50.758;6.106;2023-06-19T14:57:52;4.40;;;2.70;;
73150;SDS011;61354;50.758;6.106;2023-06-19T15:00:17;4.45;;;2.55;;
73150;SDS011;61354;50.758;6.106;2023-06-19T15:02:43;4.55;;;2.70;;
73150;SDS011;61354;50.758;6.106;2023-06-19T15:05:09;4.63;;;2.80;;
73150;SDS011;61354;50.758;6.106;2023-06-19T15:07:34;5.78;;;2.50;;
73150;SDS011;61354;50.758;6.106;2023-06-19T15:10:00;5.28;;;2.63;;
73150;SDS011;61354;50.758;6.106;2023-06-19T15:12:25;4.20;;;2.40;;
73150;SDS011;61354;50.758;6.106;2023-06-19T15:14:51;4.85;;;2.75;;
73150;SDS011;61354;50.758;6.106;2023-06-19T15:17:16;3.88;;;2.50;;
73150;SDS011;61354;50.758;6.106;2023-06-19T15:19:42;4.18;;;2.63;;
73150;SDS011;61354;50.758;6.106;2023-06-19T15:22:07;4.95;;;2.95;;
73150;SDS011;61354;50.758;6.106;2023-06-19T15:24:33;4.28;;;2.30;;
73150;SDS011;61354;50.758;6.106;2023-06-19T15:26:59;4.10;;;2.60;;
73150;SDS011;61354;50.758;6.106;2023-06-19T15:29:25;4.70;;;2.70;;
73150;SDS011;61354;50.758;6.106;2023-06-19T15:31:51;5.03;;;2.70;;
73150;SDS011;61354;50.758;6.106;2023-06-19T15:34:17;4.95;;;3.03;;